createdAt,value
2022-12-20T00:01:57.670Z,100003.69
2022-12-20T00:04:26.547Z,100000.38
2022-12-20T00:06:54.999Z,100014.94
2022-12-20T00:09:25.295Z,100015.94
2022-12-20T00:11:55.760Z,100011.72
2022-12-20T00:14:24.234Z,100003.97
2022-12-20T00:16:53.085Z,100008.34
2022-12-20T00:19:21.864Z,100009.22
2022-12-20T00:21:50.416Z,100016.19
2022-12-20T00:24:25.628Z,99997.41
2022-12-20T00:26:56.373Z,99985.38
2022-12-20T00:29:24.712Z,99983.69
2022-12-20T00:31:53.391Z,99971.75
2022-12-20T00:34:22.267Z,99970.16
2022-12-20T00:36:50.719Z,99962.41
2022-12-20T00:39:19.178Z,99938.41
2022-12-20T00:41:47.741Z,99945.31
2022-12-20T00:44:18.123Z,99950.56
2022-12-20T00:46:46.658Z,99954.03
2022-12-20T00:49:16.525Z,99954.13
2022-12-20T00:51:45.248Z,99949.84
2022-12-20T00:54:13.972Z,99963.63
2022-12-20T00:56:42.555Z,99959.34
2022-12-20T00:59:10.965Z,99962.88
2022-12-20T01:01:41.347Z,99962.09
2022-12-20T01:04:10.197Z,99965.56
2022-12-20T01:06:39.414Z,99967.34
2022-12-20T01:09:09.018Z,99965.66
2022-12-20T01:11:39.959Z,99962.25
2022-12-20T01:14:12.171Z,99976.03
2022-12-20T01:16:45.290Z,99981.28
2022-12-20T01:19:18.904Z,99981.28
2022-12-20T01:21:48.076Z,99980.47
2022-12-20T01:24:19.431Z,99961.66
2022-12-20T01:26:48.438Z,99950.47
2022-12-20T01:29:17.272Z,99953.94
2022-12-20T01:31:48.116Z,99946.28
2022-12-20T01:34:17.760Z,99939.41
2022-12-20T01:36:46.413Z,99944.66
2022-12-20T01:39:17.549Z,99948.19
2022-12-20T01:41:47.235Z,99940.44
2022-12-20T01:44:56.925Z,99916.44
2022-12-20T01:47:28.388Z,99940.44
2022-12-20T01:49:58.478Z,99941.44
2022-12-20T01:52:33.765Z,99919.19
2022-12-20T01:55:09.952Z,99927.06
2022-12-20T01:57:43.772Z,99918.44
2022-12-20T02:00:14.004Z,99917.53
2022-12-20T02:02:45.833Z,99916.81
2022-12-20T02:05:15.539Z,99922.00
2022-12-20T02:07:50.832Z,99922.00
2022-12-20T02:10:22.747Z,99923.78
2022-12-20T02:12:59.240Z,99912.63
2022-12-20T02:15:41.117Z,99917.81
2022-12-20T02:18:29.241Z,99919.50
2022-12-20T02:21:24.459Z,99914.34
2022-12-20T02:24:49.106Z,99899.56
2022-12-20T02:27:51.962Z,99896.00
2022-12-20T02:30:23.240Z,99893.38
2022-12-20T02:33:01.250Z,99885.69
2022-12-20T02:35:33.522Z,99896.97
2022-12-20T02:38:05.348Z,99896.09
2022-12-20T02:40:40.571Z,99909.09
2022-12-20T02:43:33.078Z,99900.44
2022-12-20T02:46:04.260Z,99903.03
2022-12-20T02:48:34.834Z,99897.88
2022-12-20T02:51:05.492Z,99879.81
2022-12-20T02:53:35.039Z,99887.53
2022-12-20T02:56:11.303Z,99891.91
2022-12-20T02:58:48.742Z,99874.63
2022-12-20T03:01:26.719Z,99880.69
2022-12-20T03:03:56.647Z,99879.81
2022-12-20T03:06:25.516Z,99884.97
2022-12-20T03:08:54.018Z,99882.38
2022-12-20T03:11:26.576Z,99897.06
2022-12-20T03:13:55.341Z,99894.50
2022-12-20T03:16:25.261Z,99909.16
2022-12-20T03:18:53.980Z,99916.91
2022-12-20T03:21:22.745Z,99912.69
2022-12-20T03:23:51.324Z,99907.53
2022-12-20T03:26:20.097Z,99907.53
2022-12-20T03:28:54.650Z,99908.41
2022-12-20T03:31:28.516Z,99906.81
2022-12-20T03:33:57.584Z,99906.72
2022-12-20T03:36:26.723Z,99911.09
2022-12-20T03:38:59.975Z,99911.09
2022-12-20T03:41:30.455Z,99908.50
2022-12-20T03:43:59.562Z,99905.13
2022-12-20T03:46:30.484Z,99905.94
2022-12-20T03:48:59.554Z,99895.59
2022-12-20T03:51:29.075Z,99900.75
2022-12-20T03:53:57.532Z,99910.19
2022-12-20T03:56:37.496Z,99896.41
2022-12-20T03:59:06.324Z,99892.22
2022-12-20T04:01:38.840Z,99894.00
2022-12-20T04:04:09.003Z,99895.59
2022-12-20T04:06:37.416Z,99901.56
2022-12-20T04:09:06.152Z,99889.53
2022-12-20T04:11:42.550Z,99888.66
2022-12-20T04:14:14.768Z,99873.16
2022-12-20T04:16:44.853Z,99866.22
2022-12-20T04:19:13.747Z,99870.50
2022-12-20T04:21:46.183Z,99864.44
2022-12-20T04:24:16.407Z,99861.88
2022-12-20T04:27:12.004Z,99860.94
2022-12-20T04:29:40.917Z,99867.88
2022-12-20T04:32:14.949Z,99875.66
2022-12-20T04:34:43.749Z,99876.56
2022-12-20T04:37:12.449Z,99882.50
2022-12-20T04:39:49.166Z,99871.38
2022-12-20T04:42:21.585Z,99863.66
2022-12-20T04:44:50.905Z,99851.63
2022-12-20T04:47:26.619Z,99861.06
2022-12-20T04:49:56.605Z,99856.78
2022-12-20T04:52:47.686Z,99855.91
2022-12-20T04:55:18.065Z,99866.22
2022-12-20T04:57:46.940Z,99870.50
2022-12-20T05:00:17.244Z,99860.19
2022-12-20T05:02:52.110Z,99861.06
2022-12-20T05:05:22.988Z,99861.06
2022-12-20T05:07:55.312Z,99860.19
2022-12-20T05:10:24.813Z,99871.38
2022-12-20T05:12:55.306Z,99873.16
2022-12-20T05:15:34.187Z,99867.13
2022-12-20T05:18:05.836Z,99859.47
2022-12-20T05:20:44.014Z,99855.09
2022-12-20T05:23:31.206Z,99858.66
2022-12-20T05:26:19.507Z,99851.63
2022-12-20T05:28:49.764Z,99849.06
2022-12-20T05:31:18.205Z,99845.56
2022-12-20T05:33:48.455Z,99838.00
2022-12-20T05:36:18.570Z,99838.72
2022-12-20T05:38:47.218Z,99835.34
2022-12-20T05:41:19.960Z,99825.00
2022-12-20T05:43:51.595Z,99822.34
2022-12-20T05:46:20.125Z,99823.31
2022-12-20T05:48:57.516Z,99822.50
2022-12-20T05:51:26.745Z,99821.72
2022-12-20T05:53:59.093Z,99814.78
2022-12-20T05:56:50.962Z,99811.22
2022-12-20T05:59:25.063Z,99818.16
2022-12-20T06:01:54.959Z,99819.03
2022-12-20T06:04:27.404Z,99814.78
2022-12-20T06:06:55.867Z,99807.03
2022-12-20T06:09:25.019Z,99811.38
2022-12-20T06:12:02.562Z,99809.66
2022-12-20T06:14:31.595Z,99804.50
2022-12-20T06:17:00.032Z,99799.41
2022-12-20T06:19:30.186Z,99803.78
2022-12-20T06:22:01.057Z,99797.72
2022-12-20T06:24:45.950Z,99803.78
2022-12-20T06:27:18.561Z,99799.50
2022-12-20T06:29:52.135Z,99802.09
2022-12-20T06:32:23.878Z,99798.69
2022-12-20T06:34:54.729Z,99801.38
2022-12-20T06:37:23.484Z,99806.53
2022-12-20T06:39:52.429Z,99808.28
2022-12-20T06:42:21.948Z,99815.22
2022-12-20T06:44:50.778Z,99804.88
2022-12-20T06:47:19.445Z,99814.41
2022-12-20T06:49:48.230Z,99796.34
2022-12-20T06:52:24.948Z,99786.91
2022-12-20T06:54:56.278Z,99795.53
2022-12-20T06:57:25.268Z,99772.38
2022-12-20T06:59:54.228Z,99778.38
2022-12-20T07:02:27.011Z,99760.31
2022-12-20T07:04:56.324Z,99777.66
2022-12-20T07:07:26.662Z,99782.09
2022-12-20T07:09:55.148Z,99785.53
2022-12-20T07:12:24.331Z,99779.56
2022-12-20T07:14:53.035Z,99783.84
2022-12-20T07:17:21.694Z,99781.28
2022-12-20T07:19:51.191Z,99781.34
2022-12-20T07:22:19.819Z,99779.66
2022-12-20T07:24:50.414Z,99771.09
2022-12-20T07:27:18.930Z,99770.31
2022-12-20T07:29:47.374Z,99777.22
2022-12-20T07:32:16.817Z,99771.22
2022-12-20T07:34:45.523Z,99756.63
2022-12-20T07:37:14.290Z,99769.63
2022-12-20T07:39:43.070Z,99765.44
2022-12-20T07:42:14.043Z,99754.25
2022-12-20T07:44:44.269Z,99764.59
2022-12-20T07:47:12.698Z,99758.63
2022-12-20T07:49:41.250Z,99763.78
2022-12-20T07:52:11.487Z,99754.41
2022-12-20T07:54:45.904Z,99746.66
2022-12-20T07:57:21.281Z,99755.31
2022-12-20T07:59:55.967Z,99741.50
2022-12-20T08:02:29.006Z,99743.28
2022-12-20T08:04:58.875Z,99743.31
2022-12-20T08:07:29.792Z,99741.63
2022-12-20T08:09:59.451Z,99751.16
2022-12-20T08:12:31.665Z,99753.81
2022-12-20T08:15:00.252Z,99748.66
2022-12-20T08:17:28.682Z,99764.22
2022-12-20T08:19:57.715Z,99763.41
2022-12-20T08:22:26.153Z,99761.66
2022-12-20T08:24:54.927Z,99764.38
2022-12-20T08:27:23.304Z,99769.53
2022-12-20T08:29:53.426Z,99748.09
2022-12-20T08:32:21.980Z,99738.66
2022-12-20T08:34:50.392Z,99747.28
2022-12-20T08:37:19.182Z,99741.22
2022-12-20T08:39:47.700Z,99740.44
2022-12-20T08:42:16.105Z,99749.88
2022-12-20T08:44:44.855Z,99742.19
2022-12-20T08:47:15.832Z,99722.38
2022-12-20T08:49:47.852Z,99728.44
2022-12-20T08:52:16.782Z,99728.53
2022-12-20T08:54:45.192Z,99722.47
2022-12-20T08:57:14.001Z,99724.25
2022-12-20T08:59:42.558Z,99728.69
2022-12-20T09:02:11.166Z,99724.31
2022-12-20T09:04:41.180Z,99736.44
2022-12-20T09:07:09.824Z,99708.06
2022-12-20T09:09:38.731Z,99716.78
2022-12-20T09:12:07.697Z,99737.53
2022-12-20T09:14:36.406Z,99722.91
2022-12-20T09:17:04.875Z,99724.72
2022-12-20T09:19:33.618Z,99720.44
2022-12-20T09:22:04.353Z,99735.22
2022-12-20T09:24:33.150Z,99730.19
2022-12-20T09:27:01.656Z,99742.28
2022-12-20T09:29:35.496Z,99731.94
2022-12-20T09:32:04.735Z,99733.72
2022-12-20T09:34:33.216Z,99738.09
2022-12-20T09:37:03.998Z,99731.19
2022-12-20T09:39:32.683Z,99735.53
2022-12-20T09:42:01.539Z,99741.69
2022-12-20T09:44:34.663Z,99736.59
2022-12-20T09:47:10.766Z,99739.19
2022-12-20T09:49:44.628Z,99739.19
2022-12-20T09:52:41.970Z,99734.00
2022-12-20T09:55:25.709Z,99738.34
2022-12-20T09:58:15.302Z,99734.00
2022-12-20T10:00:53.563Z,99737.53
2022-12-20T10:03:25.527Z,99739.22
2022-12-20T10:05:57.564Z,99732.44
2022-12-20T10:08:45.367Z,99742.84
2022-12-20T10:11:39.527Z,99728.22
2022-12-20T10:14:28.625Z,99731.69
2022-12-20T10:17:03.320Z,99723.09
2022-12-20T10:19:53.701Z,99719.72
2022-12-20T10:22:27.897Z,99720.69
2022-12-20T10:25:08.159Z,99709.66
2022-12-20T10:27:38.822Z,99714.00
2022-12-20T10:30:15.711Z,99708.09
2022-12-20T10:32:48.564Z,99703.84
2022-12-20T10:35:26.147Z,99690.19
2022-12-20T10:38:08.071Z,99698.00
2022-12-20T10:43:40.225Z,99682.63
2022-12-20T10:46:10.415Z,99669.78
2022-12-20T10:48:41.014Z,99664.66
2022-12-20T10:51:18.410Z,99650.91
2022-12-20T10:53:57.413Z,99651.81
2022-12-20T10:56:29.198Z,99664.88
2022-12-20T10:59:00.807Z,99660.56
2022-12-20T11:01:33.020Z,99660.72
2022-12-20T11:04:04.795Z,99654.81
2022-12-20T11:06:45.260Z,99644.56
2022-12-20T11:09:29.774Z,99651.53
2022-12-20T11:12:07.166Z,99639.47
2022-12-20T11:14:39.880Z,99641.28
2022-12-20T11:17:28.693Z,99643.22
2022-12-20T11:20:26.845Z,99639.78
2022-12-20T11:23:14.091Z,99636.53
2022-12-20T11:26:01.162Z,99630.66
2022-12-20T11:28:59.943Z,99636.78
2022-12-20T11:31:41.621Z,99617.91
2022-12-20T11:34:23.832Z,99614.56
2022-12-20T11:37:19.335Z,99608.56
2022-12-20T11:40:18.517Z,99598.34
2022-12-20T11:43:00.407Z,99607.09
2022-12-20T11:45:38.714Z,99608.91
2022-12-20T11:48:36.578Z,99596.84
2022-12-20T11:51:10.976Z,99596.03
2022-12-20T11:53:52.731Z,99605.59
2022-12-20T11:56:27.131Z,99587.56
2022-12-20T11:59:01.914Z,99590.16
2022-12-20T12:01:38.820Z,99586.75
2022-12-20T12:04:16.995Z,99581.63
2022-12-20T12:06:49.611Z,99588.53
2022-12-20T12:09:25.987Z,99584.16
2022-12-20T12:12:07.948Z,99570.41
2022-12-20T12:14:50.351Z,99581.63
2022-12-20T12:17:36.841Z,99580.75
2022-12-20T12:20:23.528Z,99567.81
2022-12-20T12:22:57.306Z,99567.00
2022-12-20T12:25:26.387Z,99567.81
2022-12-20T12:27:56.292Z,99566.13
2022-12-20T12:30:25.233Z,99578.16
2022-12-20T12:33:02.453Z,99573.06
2022-12-20T12:36:20.289Z,99587.69
2022-12-20T12:39:12.763Z,99578.16
2022-12-20T12:42:11.771Z,99578.09
2022-12-20T12:44:50.275Z,99579.81
2022-12-20T12:47:24.600Z,99578.97
2022-12-20T12:49:56.722Z,99580.75
2022-12-20T12:52:42.462Z,99582.53
2022-12-20T12:55:44.419Z,99585.03
2022-12-20T12:58:35.292Z,99578.97
2022-12-20T13:01:09.036Z,99581.56
2022-12-20T13:03:46.736Z,99578.97
2022-12-20T13:07:15.000Z,99575.44
2022-12-20T13:09:45.264Z,99572.03
2022-12-20T13:12:59.891Z,99577.22
2022-12-20T13:16:06.507Z,99578.03
2022-12-20T13:18:34.976Z,99570.22
2022-12-20T13:21:38.490Z,99584.16
2022-12-20T13:24:53.225Z,99592.66
2022-12-20T13:27:34.862Z,99592.75
2022-12-20T13:30:36.171Z,99596.22
2022-12-20T13:33:26.289Z,99588.53
2022-12-20T13:36:31.226Z,99580.75
2022-12-20T13:39:02.954Z,99580.75
2022-12-20T13:41:40.141Z,99582.53
2022-12-20T13:44:34.331Z,99585.16
2022-12-20T13:47:15.621Z,99584.31
2022-12-20T13:49:45.884Z,99572.19
2022-12-20T13:52:26.356Z,99564.41
2022-12-20T13:54:58.551Z,99573.06
2022-12-20T13:57:33.446Z,99564.41
2022-12-20T14:00:07.853Z,99570.41
2022-12-20T14:02:43.291Z,99576.41
2022-12-20T14:05:20.360Z,99576.41
2022-12-20T14:07:55.186Z,99575.50
2022-12-20T14:10:27.600Z,99568.63
2022-12-20T14:12:57.991Z,99576.31
2022-12-20T14:15:30.811Z,99578.03
2022-12-20T14:18:06.649Z,99578.03
2022-12-20T14:20:37.214Z,99585.78
2022-12-20T14:23:08.275Z,99590.16
2022-12-20T14:25:43.293Z,99590.97
2022-12-20T14:28:27.567Z,99586.63
2022-12-20T14:30:57.477Z,99583.09
2022-12-20T14:33:36.719Z,99579.63
2022-12-20T14:36:12.607Z,99581.31
2022-12-20T14:38:42.395Z,99580.44
2022-12-20T14:41:35.233Z,99578.75
2022-12-20T14:44:18.402Z,99583.09
2022-12-20T14:46:52.142Z,99579.50
2022-12-20T14:49:26.563Z,99582.09
2022-12-20T14:52:09.195Z,99580.34
2022-12-20T14:57:41.929Z,99570.75
2022-12-20T15:00:22.535Z,99563.00
2022-12-20T15:03:02.094Z,99561.22
2022-12-20T15:05:48.941Z,99560.28
2022-12-20T15:08:21.800Z,99555.97
2022-12-20T15:11:01.127Z,99554.25
2022-12-20T15:13:34.105Z,99555.88
2022-12-20T15:16:07.232Z,99561.06
2022-12-20T15:18:35.942Z,99555.88
2022-12-20T15:21:08.466Z,99555.06
2022-12-20T15:23:36.939Z,99552.41
2022-12-20T15:26:05.530Z,99552.41
2022-12-20T15:28:34.491Z,99552.34
2022-12-20T15:31:06.013Z,99555.00
2022-12-20T15:33:36.680Z,99555.00
2022-12-20T15:36:05.305Z,99554.09
2022-12-20T15:39:03.208Z,99545.38
2022-12-20T15:41:25.475Z,99552.34
2022-12-20T15:43:58.438Z,99537.69
2022-12-20T15:46:29.422Z,99535.94
2022-12-20T15:48:58.212Z,99548.88
2022-12-20T15:51:32.263Z,99536.81
2022-12-20T15:54:03.035Z,99544.53
2022-12-20T15:56:32.119Z,99546.25
2022-12-20T15:59:05.425Z,99544.47
2022-12-20T16:01:48.013Z,99541.00
2022-12-20T16:04:19.557Z,99531.53
2022-12-20T16:06:50.765Z,99527.19
2022-12-20T16:09:19.186Z,99522.81
2022-12-20T16:11:48.244Z,99523.72
2022-12-20T16:14:21.242Z,99525.41
2022-12-20T16:16:51.437Z,99519.28
2022-12-20T16:19:19.782Z,99518.47
2022-12-20T16:21:50.953Z,99521.06
2022-12-20T16:24:21.647Z,99518.47
2022-12-20T16:26:51.651Z,99511.53
2022-12-20T16:29:20.197Z,99511.47
2022-12-20T16:31:50.097Z,99520.13
2022-12-20T16:34:20.844Z,99522.72
2022-12-20T16:36:49.301Z,99525.31
2022-12-20T16:39:19.207Z,99526.03
2022-12-20T16:41:47.573Z,99530.41
2022-12-20T16:44:18.162Z,99531.22
2022-12-20T16:46:46.989Z,99532.91
2022-12-20T16:49:20.498Z,99536.41
2022-12-20T16:51:50.974Z,99534.69
2022-12-20T16:54:22.323Z,99533.06
2022-12-20T16:56:55.508Z,99524.44
2022-12-20T16:59:24.363Z,99538.22
2022-12-20T17:01:56.226Z,99538.22
2022-12-20T17:04:27.874Z,99532.22
2022-12-20T17:06:56.317Z,99532.19
2022-12-20T17:09:24.767Z,99527.03
2022-12-20T17:11:53.457Z,99520.13
2022-12-20T17:14:21.937Z,99533.06
2022-12-20T17:16:50.304Z,99530.47
2022-12-20T17:19:19.473Z,99535.69
2022-12-20T17:24:35.905Z,99527.81
2022-12-20T17:27:04.825Z,99520.06
2022-12-20T17:29:33.173Z,99514.09
2022-12-20T17:32:03.624Z,99516.69
2022-12-20T17:34:32.616Z,99509.88
2022-12-20T17:37:02.819Z,99517.66
2022-12-20T17:39:31.175Z,99517.66
2022-12-20T17:42:01.057Z,99505.59
2022-12-20T17:44:30.359Z,99518.53
2022-12-20T17:46:58.862Z,99508.19
2022-12-20T17:49:27.246Z,99510.84
2022-12-20T17:51:56.638Z,99509.06
2022-12-20T17:54:35.107Z,99495.31
2022-12-20T17:57:07.722Z,99490.16
2022-12-20T17:59:36.253Z,99490.97
2022-12-20T18:02:04.760Z,99481.56
2022-12-20T18:04:33.327Z,99484.97
2022-12-20T18:07:02.222Z,99493.56
2022-12-20T18:09:32.129Z,99487.56
2022-12-20T18:12:00.540Z,99490.16
2022-12-20T18:14:29.530Z,99489.25
2022-12-20T18:16:58.719Z,99491.03
2022-12-20T18:19:27.473Z,99497.09
2022-12-20T18:21:56.076Z,99507.44
2022-12-20T18:24:24.525Z,99502.31
2022-12-20T18:26:54.601Z,99497.09
2022-12-20T18:29:23.011Z,99493.66
2022-12-20T18:31:51.782Z,99490.25
2022-12-20T18:34:20.571Z,99484.19
2022-12-20T18:36:48.979Z,99492.84
2022-12-20T18:39:17.629Z,99487.75
2022-12-20T18:41:46.399Z,99486.84
2022-12-20T18:44:16.229Z,99487.75
2022-12-20T18:46:44.950Z,99486.84
2022-12-20T18:49:13.468Z,99486.84
2022-12-20T18:51:43.762Z,99483.44
2022-12-20T18:54:14.794Z,99487.00
2022-12-20T18:56:43.755Z,99483.44
2022-12-20T18:59:13.127Z,99480.03
2022-12-20T19:01:44.130Z,99480.03
2022-12-20T19:04:14.292Z,99485.22
2022-12-20T19:06:44.884Z,99483.44
2022-12-20T19:09:15.289Z,99488.63
2022-12-20T19:11:44.804Z,99485.22
2022-12-20T19:14:13.893Z,99492.03
2022-12-20T19:16:43.730Z,99491.22
2022-12-20T19:19:12.549Z,99485.16
2022-12-20T19:21:43.169Z,99487.75
2022-12-20T19:24:13.648Z,99482.56
2022-12-20T19:26:42.082Z,99492.09
2022-12-20T19:29:11.632Z,99490.41
2022-12-20T19:31:40.134Z,99483.44
2022-12-20T19:34:13.405Z,99488.69
2022-12-20T19:36:44.570Z,99481.81
2022-12-20T19:39:16.844Z,99484.41
2022-12-20T19:42:06.814Z,99479.22
2022-12-20T19:44:34.053Z,99480.03
2022-12-20T19:47:05.315Z,99480.03
2022-12-20T19:49:36.487Z,99487.00
2022-12-20T19:52:06.869Z,99492.97
2022-12-20T19:54:36.357Z,99495.56
2022-12-20T19:57:05.044Z,99486.03
2022-12-20T19:59:33.498Z,99487.75
2022-12-20T20:02:02.187Z,99474.81
2022-12-20T20:04:31.266Z,99483.44
2022-12-20T20:07:01.084Z,99477.38
2022-12-20T20:09:30.218Z,99480.88
2022-12-20T20:11:58.721Z,99476.50
2022-12-20T20:14:27.147Z,99475.63
2022-12-20T20:16:55.707Z,99475.69
2022-12-20T20:19:24.240Z,99466.16
2022-12-20T20:21:52.745Z,99473.09
2022-12-20T20:24:23.167Z,99480.03
2022-12-20T20:26:51.643Z,99483.56
2022-12-20T20:29:20.614Z,99482.72
2022-12-20T20:31:49.340Z,99479.25
2022-12-20T20:34:17.775Z,99485.31
2022-12-20T20:36:46.220Z,99477.63
2022-12-20T20:39:14.642Z,99472.47
2022-12-20T20:41:44.438Z,99475.13
2022-12-20T20:44:13.905Z,99469.94
2022-12-20T20:46:42.368Z,99469.06
2022-12-20T20:49:10.986Z,99475.13
2022-12-20T20:51:40.002Z,99463.88
2022-12-20T20:54:08.563Z,99466.47
2022-12-20T20:56:37.126Z,99475.94
2022-12-20T20:59:11.878Z,99465.59
2022-12-20T21:01:46.076Z,99454.28
2022-12-20T21:04:14.514Z,99446.53
2022-12-20T21:06:43.191Z,99456.03
2022-12-20T21:09:12.119Z,99454.34
2022-12-20T21:11:41.140Z,99454.41
2022-12-20T21:14:11.078Z,99455.31
2022-12-20T21:16:42.049Z,99451.09
2022-12-20T21:19:11.947Z,99459.63
2022-12-20T21:21:40.794Z,99454.56
2022-12-20T21:24:09.846Z,99459.72
2022-12-20T21:26:38.484Z,99463.28
2022-12-20T21:29:06.951Z,99466.66
2022-12-20T21:31:37.224Z,99456.38
2022-12-20T21:34:05.783Z,99445.97
2022-12-20T21:36:34.316Z,99459.88
2022-12-20T21:39:03.593Z,99460.72
2022-12-20T21:41:32.147Z,99465.03
2022-12-20T21:44:01.699Z,99458.19
2022-12-20T21:46:32.786Z,99459.00
2022-12-20T21:49:02.924Z,99468.53
2022-12-20T21:51:32.662Z,99470.31
2022-12-20T21:54:03.334Z,99468.47
2022-12-20T21:56:35.685Z,99475.50
2022-12-20T21:59:05.237Z,99464.31
2022-12-20T22:01:34.186Z,99466.91
2022-12-20T22:04:06.630Z,99460.91
2022-12-20T22:06:36.145Z,99461.81
2022-12-20T22:09:07.422Z,99468.69
2022-12-20T22:11:36.084Z,99466.91
2022-12-20T22:14:04.917Z,99463.50
2022-12-20T22:16:34.919Z,99468.72
2022-12-20T22:19:05.084Z,99470.44
2022-12-20T22:21:36.710Z,99474.84
2022-12-20T22:24:06.809Z,99462.72
2022-12-20T22:26:35.887Z,99468.78
2022-12-20T22:29:07.390Z,99469.66
2022-12-20T22:31:37.740Z,99474.84
2022-12-20T22:34:08.104Z,99474.84
2022-12-20T22:36:37.016Z,99466.19
2022-12-20T22:39:05.806Z,99467.97
2022-12-20T22:41:35.548Z,99465.38
2022-12-20T22:44:04.948Z,99466.31
2022-12-20T22:46:34.207Z,99457.69
2022-12-20T22:49:02.659Z,99464.63
2022-12-20T22:51:33.621Z,99467.25
2022-12-20T22:54:02.469Z,99468.06
2022-12-20T22:56:30.841Z,99468.13
2022-12-20T22:58:59.453Z,99473.38
2022-12-20T23:01:28.120Z,99467.25
2022-12-20T23:03:56.814Z,99463.84
2022-12-20T23:06:25.582Z,99469.00
2022-12-20T23:08:56.071Z,99468.13
2022-12-20T23:11:45.175Z,99462.94
2022-12-20T23:14:34.933Z,99472.38
2022-12-20T23:17:05.044Z,99474.09
2022-12-20T23:19:54.375Z,99466.25
2022-12-20T23:22:39.599Z,99476.69
2022-12-20T23:25:12.845Z,99477.50
2022-12-20T23:27:43.199Z,99473.19
2022-12-20T23:30:15.061Z,99471.53
2022-12-20T23:32:44.650Z,99474.13
2022-12-20T23:35:16.047Z,99469.81
2022-12-20T23:37:45.508Z,99480.19
2022-12-20T23:40:17.833Z,99480.25
2022-12-20T23:42:46.847Z,99475.06
2022-12-20T23:45:15.741Z,99473.31
2022-12-20T23:47:44.591Z,99475.06
2022-12-20T23:50:13.475Z,99475.06
2022-12-20T23:52:42.204Z,99463.84
2022-12-20T23:55:11.191Z,99469.00
2022-12-20T23:57:41.364Z,99475.97
